Abernathy, Texas
Current Conditions -  °F | °C
As of 12:53 PM on Sunday 21 Dec 2014 (Local Time) from KLBB Reporting Station
Scattered Clouds Scattered Clouds  
Wind Chill: 17°   Ceiling: Unl
Heat Index: 17°   Visibility: 10mi
Dew Point: -3°   Wind: 28mph
Humidity: 25%   Direction: 270°W
Pressure: 29.76"   Gusts: 38mph
Location:  33.83°N, 101.84°W
Report Text: KLBB 211853Z 27024G33KT 10SM FEW080 FEW260 SCT300 17/M03 A2976 RMK AO2 PK WND 27033/1851 SLP054 BLDU DSNT W T01721033
Loading
Personal Weather Stations






























Interactive Weather Map New forecast layout! Learn more

10-Day Weather Forecast

Advertisements
Track Severe Weather on mobile